sim
Sign-in with your pilot id or email,
or register
Callsign
Passwort

Schedule Details

Flight Number: OEC538
Departure: Stockholm-Bromma Airport (ESSB) at Time
Arrival: Stockholm Arlanda Airport (ESSA) at Time

Weather Information
Getting current METAR information for ESSB 240550Z 19003KT 160V250 9999 BKN032 02/00 Q1011
Getting current METAR information for ESSA 240550Z 22005KT 9999 BKN034 M01/M02 Q1010 R01R/0///95 R08/0///95 NOSIG

Schedule Frequency

Route Map